createdAt,value
2017-10-12T00:01:53.102Z,22.26
2017-10-12T00:03:58.020Z,21.87
2017-10-12T00:06:06.693Z,21.65
2017-10-12T00:08:13.064Z,21.61
2017-10-12T00:10:19.032Z,21.54
2017-10-12T00:12:26.963Z,21.56
2017-10-12T00:14:33.149Z,21.55
2017-10-12T00:16:38.653Z,21.47
2017-10-12T00:18:45.802Z,21.45
2017-10-12T00:20:51.754Z,21.43
2017-10-12T00:22:57.712Z,21.33
2017-10-12T00:25:07.141Z,21.30
2017-10-12T00:27:12.719Z,21.24
2017-10-12T00:29:20.558Z,21.27
2017-10-12T00:31:28.518Z,21.36
2017-10-12T00:33:34.866Z,21.47
2017-10-12T00:35:41.448Z,21.36
2017-10-12T00:40:14.941Z,21.40
2017-10-12T00:42:20.987Z,21.39
2017-10-12T00:44:27.656Z,21.40
2017-10-12T00:46:33.957Z,21.64
2017-10-12T00:48:38.286Z,21.97
2017-10-12T00:50:43.142Z,21.77
2017-10-12T00:52:48.044Z,22.04
2017-10-12T00:54:52.707Z,21.95
2017-10-12T00:56:57.467Z,21.98
2017-10-12T00:59:04.249Z,21.91
2017-10-12T01:01:09.033Z,21.94
2017-10-12T01:03:13.942Z,22.09
2017-10-12T01:05:18.278Z,22.20
2017-10-12T01:07:22.769Z,22.32
2017-10-12T01:09:29.938Z,22.42
2017-10-12T01:11:35.142Z,22.14
2017-10-12T01:13:40.644Z,22.26
2017-10-12T01:15:45.718Z,22.37
2017-10-12T01:17:51.988Z,22.31
2017-10-12T01:20:01.319Z,22.46
2017-10-12T01:22:11.273Z,22.34
2017-10-12T01:24:16.307Z,22.25
2017-10-12T01:26:21.996Z,22.20
2017-10-12T01:28:28.566Z,22.32
2017-10-12T01:30:34.888Z,22.43
2017-10-12T01:32:40.985Z,22.22
2017-10-12T01:34:47.212Z,22.38
2017-10-12T01:36:51.652Z,22.43
2017-10-12T01:38:56.517Z,22.38
2017-10-12T01:41:03.992Z,22.34
2017-10-12T01:43:10.772Z,22.38
2017-10-12T01:45:18.674Z,22.41
2017-10-12T01:47:26.376Z,22.33
2017-10-12T01:49:33.229Z,22.36
2017-10-12T01:51:38.984Z,22.39
2017-10-12T01:53:44.352Z,22.37
2017-10-12T01:55:49.943Z,22.56
2017-10-12T01:57:54.707Z,22.48
2017-10-12T02:00:02.593Z,22.59
2017-10-12T02:02:09.391Z,22.53
2017-10-12T02:04:16.548Z,22.56
2017-10-12T02:06:27.453Z,22.48
2017-10-12T02:08:34.621Z,22.50
2017-10-12T02:10:40.848Z,22.44
2017-10-12T02:12:49.013Z,22.41
2017-10-12T02:14:55.728Z,22.22
2017-10-12T02:17:02.994Z,22.41
2017-10-12T02:19:08.928Z,22.36
2017-10-12T02:21:14.794Z,22.42
2017-10-12T02:23:20.704Z,22.38
2017-10-12T02:25:27.697Z,22.55
2017-10-12T02:27:32.480Z,22.46
2017-10-12T02:29:37.341Z,22.48
2017-10-12T02:31:42.617Z,22.32
2017-10-12T02:33:47.266Z,22.42
2017-10-12T02:35:51.978Z,22.38
2017-10-12T02:37:56.682Z,22.54
2017-10-12T02:40:03.498Z,22.52
2017-10-12T02:42:10.156Z,22.34
2017-10-12T02:44:15.534Z,22.29
2017-10-12T02:46:21.600Z,22.37
2017-10-12T02:48:26.000Z,22.34
2017-10-12T02:50:32.442Z,22.30
2017-10-12T02:52:36.902Z,22.30
2017-10-12T02:54:41.921Z,22.25
2017-10-12T02:56:46.975Z,22.16
2017-10-12T02:58:51.628Z,22.30
2017-10-12T03:00:56.116Z,22.22
2017-10-12T03:03:05.000Z,22.29
2017-10-12T03:05:10.298Z,22.17
2017-10-12T03:07:15.746Z,22.10
2017-10-12T03:09:21.907Z,22.16
2017-10-12T03:11:34.892Z,22.14
2017-10-12T03:13:39.694Z,22.12
2017-10-12T03:15:46.202Z,22.06
2017-10-12T03:17:51.186Z,22.09
2017-10-12T03:19:56.845Z,21.81
2017-10-12T03:22:03.825Z,21.85
2017-10-12T03:24:10.946Z,21.94
2017-10-12T03:26:17.860Z,21.88
2017-10-12T03:28:25.287Z,21.56
2017-10-12T03:30:33.892Z,21.40
2017-10-12T03:32:39.176Z,21.40
2017-10-12T03:34:44.413Z,21.23
2017-10-12T03:36:48.820Z,21.21
2017-10-12T03:38:53.246Z,21.14
2017-10-12T03:40:58.053Z,21.12
2017-10-12T03:43:05.407Z,21.22
2017-10-12T03:45:10.416Z,21.18
2017-10-12T03:47:16.087Z,21.12
2017-10-12T03:49:21.716Z,21.13
2017-10-12T03:51:28.663Z,21.04
2017-10-12T03:53:33.424Z,20.99
2017-10-12T03:55:38.418Z,20.87
2017-10-12T03:57:42.449Z,21.00
2017-10-12T03:59:47.449Z,21.11
2017-10-12T04:01:52.630Z,21.12
2017-10-12T04:03:57.118Z,21.09
2017-10-12T04:06:04.608Z,21.06
2017-10-12T04:08:08.946Z,21.04
2017-10-12T04:10:13.264Z,21.01
2017-10-12T04:12:17.469Z,21.04
2017-10-12T04:14:21.489Z,21.09
2017-10-12T04:16:28.416Z,21.11
2017-10-12T04:18:33.765Z,21.23
2017-10-12T04:20:38.440Z,21.37
2017-10-12T04:22:42.740Z,21.45
2017-10-12T04:24:47.757Z,21.41
2017-10-12T04:26:53.830Z,21.40
2017-10-12T04:28:58.545Z,21.59
2017-10-12T04:31:06.169Z,21.59
2017-10-12T04:33:11.533Z,21.54
2017-10-12T04:35:17.824Z,21.63
2017-10-12T04:37:23.116Z,21.57
2017-10-12T04:39:27.377Z,21.64
2017-10-12T04:41:35.188Z,21.50
2017-10-12T04:43:41.549Z,21.40
2017-10-12T04:45:47.650Z,21.40
2017-10-12T04:47:53.821Z,21.29
2017-10-12T04:49:58.291Z,21.16
2017-10-12T04:52:07.303Z,21.18
2017-10-12T04:54:14.046Z,21.26
2017-10-12T04:56:21.345Z,21.24
2017-10-12T04:58:25.667Z,21.31
2017-10-12T05:00:31.535Z,21.27
2017-10-12T05:02:36.993Z,21.30
2017-10-12T05:04:42.428Z,21.20
2017-10-12T05:06:48.753Z,21.25
2017-10-12T05:08:55.179Z,21.22
2017-10-12T05:11:05.062Z,21.20
2017-10-12T05:13:12.056Z,21.13
2017-10-12T05:15:17.469Z,21.12
2017-10-12T05:17:22.048Z,21.14
2017-10-12T05:19:26.508Z,20.98
2017-10-12T05:21:30.694Z,21.01
2017-10-12T05:23:38.104Z,20.93
2017-10-12T05:25:44.260Z,21.00
2017-10-12T05:27:48.439Z,20.91
2017-10-12T05:29:53.512Z,20.97
2017-10-12T05:31:58.786Z,21.04
2017-10-12T05:34:07.101Z,21.00
2017-10-12T05:36:12.790Z,21.06
2017-10-12T05:38:17.944Z,21.06
2017-10-12T05:40:25.859Z,21.02
2017-10-12T05:42:32.580Z,20.93
2017-10-12T05:44:36.990Z,20.89
2017-10-12T05:46:41.336Z,20.93
2017-10-12T05:48:46.314Z,21.07
2017-10-12T05:50:51.455Z,21.00
2017-10-12T05:52:55.747Z,21.06
2017-10-12T05:55:00.176Z,20.84
2017-10-12T05:57:06.476Z,20.72
2017-10-12T05:59:13.648Z,20.71
2017-10-12T06:01:18.552Z,20.80
2017-10-12T06:03:24.315Z,20.64
2017-10-12T06:05:28.603Z,20.57
2017-10-12T06:07:37.217Z,20.68
2017-10-12T06:09:42.697Z,20.79
2017-10-12T06:11:47.217Z,20.85
2017-10-12T06:13:55.493Z,21.04
2017-10-12T06:15:59.657Z,21.02
2017-10-12T06:18:10.507Z,21.04
2017-10-12T06:20:18.634Z,20.95
2017-10-12T06:22:23.606Z,20.91
2017-10-12T06:24:28.364Z,20.98
2017-10-12T06:26:33.698Z,20.85
2017-10-12T06:28:40.260Z,20.84
2017-10-12T06:30:45.476Z,20.95
2017-10-12T06:32:52.411Z,20.91
2017-10-12T06:34:56.582Z,20.64
2017-10-12T06:37:03.982Z,20.59
2017-10-12T06:39:09.993Z,20.65
2017-10-12T06:41:17.977Z,20.77
2017-10-12T06:43:24.223Z,20.82
2017-10-12T06:45:28.970Z,20.93
2017-10-12T06:47:34.024Z,20.83
2017-10-12T06:49:38.771Z,20.77
2017-10-12T06:51:43.797Z,20.87
2017-10-12T06:53:48.870Z,21.23
2017-10-12T06:55:53.197Z,21.21
2017-10-12T06:57:58.408Z,21.05
2017-10-12T07:00:07.252Z,21.12
2017-10-12T07:02:13.135Z,21.14
2017-10-12T07:04:19.852Z,21.17
2017-10-12T07:06:26.836Z,21.19
2017-10-12T07:08:31.794Z,21.20
2017-10-12T07:10:38.138Z,21.36
2017-10-12T07:12:42.323Z,21.35
2017-10-12T07:14:46.927Z,21.40
2017-10-12T07:16:54.561Z,21.37
2017-10-12T07:18:59.148Z,21.49
2017-10-12T07:26:20.125Z,21.42
2017-10-12T07:28:28.924Z,21.56
2017-10-12T07:30:40.251Z,21.56
2017-10-12T07:32:48.543Z,21.52
2017-10-12T07:34:55.526Z,21.43
2017-10-12T07:37:11.293Z,21.52
2017-10-12T07:39:17.109Z,21.55
2017-10-12T07:41:24.747Z,21.72
2017-10-12T07:43:33.415Z,21.69
2017-10-12T07:45:38.028Z,21.70
2017-10-12T07:47:42.391Z,21.60
2017-10-12T07:49:46.550Z,21.62
2017-10-12T07:51:51.511Z,21.70
2017-10-12T07:53:59.697Z,21.71
2017-10-12T07:56:07.873Z,21.75
2017-10-12T07:58:14.425Z,21.75
2017-10-12T08:00:19.846Z,21.85
2017-10-12T08:02:25.495Z,21.78
2017-10-12T08:04:30.170Z,21.74
2017-10-12T08:06:37.217Z,21.79
2017-10-12T08:08:42.540Z,21.67
2017-10-12T08:10:47.783Z,21.73
2017-10-12T08:12:53.432Z,21.74
2017-10-12T08:14:57.584Z,21.77
2017-10-12T08:17:07.338Z,21.74
2017-10-12T08:19:14.018Z,21.82
2017-10-12T08:21:22.097Z,21.81
2017-10-12T08:23:27.827Z,21.81
2017-10-12T08:25:36.263Z,21.83
2017-10-12T08:27:46.793Z,21.88
2017-10-12T08:29:54.835Z,21.85
2017-10-12T08:32:04.385Z,21.85
2017-10-12T08:34:09.878Z,21.87
2017-10-12T08:36:16.663Z,21.84
2017-10-12T08:38:23.845Z,21.88
2017-10-12T08:41:09.034Z,21.84
2017-10-12T08:45:59.711Z,21.82
2017-10-12T08:48:26.371Z,21.72
2017-10-12T08:50:34.093Z,21.81
2017-10-12T08:52:39.393Z,21.92
2017-10-12T08:54:46.042Z,21.91
2017-10-12T08:56:51.126Z,21.90
2017-10-12T08:58:58.541Z,21.91
2017-10-12T09:01:14.147Z,21.92
2017-10-12T09:03:23.525Z,21.86
2017-10-12T09:05:30.861Z,21.85
2017-10-12T09:07:38.273Z,21.93
2017-10-12T09:09:45.858Z,22.02
2017-10-12T09:11:52.305Z,21.98
2017-10-12T09:13:59.052Z,22.02
2017-10-12T09:16:09.388Z,21.99
2017-10-12T09:18:16.023Z,22.01
2017-10-12T09:20:29.100Z,22.12
2017-10-12T09:22:37.669Z,22.12
2017-10-12T09:24:45.363Z,22.13
2017-10-12T09:26:52.554Z,22.20
2017-10-12T09:28:58.071Z,22.16
2017-10-12T09:31:38.418Z,22.16
2017-10-12T09:33:44.341Z,22.10
2017-10-12T09:35:50.255Z,22.05
2017-10-12T09:37:55.237Z,22.10
2017-10-12T09:40:00.211Z,22.11
2017-10-12T09:42:11.265Z,22.14
2017-10-12T09:44:16.442Z,22.16
2017-10-12T09:46:23.361Z,22.12
2017-10-12T09:48:33.580Z,22.12
2017-10-12T09:50:48.379Z,22.22
2017-10-12T09:52:57.337Z,22.11
2017-10-12T09:55:05.734Z,22.07
2017-10-12T09:57:13.644Z,22.14
2017-10-12T09:59:24.275Z,22.13
2017-10-12T10:02:41.240Z,22.12
2017-10-12T10:04:48.115Z,22.07
2017-10-12T10:06:54.045Z,21.97
2017-10-12T10:16:12.627Z,22.01
2017-10-12T12:28:18.168Z,23.01
2017-10-12T12:30:34.045Z,23.24
2017-10-12T12:32:48.847Z,23.30
2017-10-12T12:34:58.257Z,23.31
2017-10-12T12:37:13.790Z,23.19
2017-10-12T12:39:22.028Z,23.02
2017-10-12T12:41:31.309Z,23.19
2017-10-12T12:43:36.783Z,23.34
2017-10-12T12:45:44.016Z,23.44
2017-10-12T12:47:54.416Z,23.43
2017-10-12T12:50:00.221Z,23.54
2017-10-12T12:52:11.125Z,23.74
2017-10-12T12:55:23.382Z,23.59
2017-10-12T12:57:33.756Z,23.84
2017-10-12T13:00:22.245Z,23.90
2017-10-12T13:02:29.161Z,23.75
2017-10-12T13:04:37.807Z,23.68
2017-10-12T13:06:43.143Z,23.62
2017-10-12T13:08:47.558Z,23.69
2017-10-12T13:11:01.065Z,23.87
2017-10-12T13:13:14.694Z,23.91
2017-10-12T13:15:21.182Z,23.97
2017-10-12T13:23:31.533Z,23.75
2017-10-12T13:25:47.051Z,23.86
2017-10-12T13:27:51.962Z,23.85
2017-10-12T13:29:57.163Z,23.93
2017-10-12T13:32:04.522Z,23.77
2017-10-12T13:34:10.397Z,23.68
2017-10-12T13:36:17.542Z,23.70
2017-10-12T13:38:25.679Z,23.72
2017-10-12T13:40:31.667Z,23.65
2017-10-12T13:42:38.367Z,23.52
2017-10-12T13:44:49.433Z,23.35
2017-10-12T13:47:00.230Z,23.33
2017-10-12T13:49:16.855Z,23.26
2017-10-12T13:53:52.797Z,23.27
2017-10-12T13:55:58.519Z,23.33
2017-10-12T14:48:28.141Z,23.46
2017-10-12T15:23:01.568Z,23.52
2017-10-12T15:25:24.022Z,23.62
2017-10-12T15:36:23.956Z,23.55
2017-10-12T15:38:38.586Z,23.24
2017-10-12T15:40:57.142Z,23.34
2017-10-12T16:27:57.959Z,22.47
2017-10-12T16:43:22.039Z,22.38
2017-10-12T16:45:26.719Z,22.36
2017-10-12T16:47:57.225Z,22.40
2017-10-12T16:50:53.211Z,22.37
2017-10-12T16:55:10.803Z,22.35
2017-10-12T16:57:16.468Z,22.41
2017-10-12T16:59:25.874Z,22.32
2017-10-12T17:11:38.036Z,22.27
2017-10-12T17:19:17.648Z,22.39
2017-10-12T17:21:30.562Z,22.34
2017-10-12T17:26:17.568Z,22.07
2017-10-12T17:28:24.446Z,22.02
2017-10-12T17:30:31.734Z,21.77
2017-10-12T17:32:37.606Z,21.62
2017-10-12T17:34:49.161Z,21.69
2017-10-12T17:36:54.079Z,21.84
2017-10-12T17:39:03.694Z,21.91
2017-10-12T17:41:13.874Z,22.05
2017-10-12T17:43:23.470Z,22.12
2017-10-12T17:45:46.270Z,21.96
2017-10-12T17:50:45.487Z,21.67
2017-10-12T17:52:52.911Z,21.58
2017-10-12T17:55:32.745Z,21.31
2017-10-12T18:00:40.786Z,21.62
2017-10-12T18:05:17.148Z,21.06
2017-10-12T18:28:19.957Z,21.62
2017-10-12T18:45:48.494Z,21.81
2017-10-12T18:50:00.139Z,21.78
2017-10-12T18:52:11.123Z,21.84
2017-10-12T18:54:16.618Z,21.85
2017-10-12T18:56:24.677Z,21.20
2017-10-12T18:58:30.105Z,21.33
2017-10-12T19:00:43.819Z,21.40
2017-10-12T19:02:55.326Z,21.35
2017-10-12T19:05:06.903Z,21.40
2017-10-12T19:12:53.564Z,21.49
2017-10-12T19:15:04.868Z,21.71
2017-10-12T19:23:43.018Z,21.60
2017-10-12T19:25:52.050Z,21.61
2017-10-12T19:28:00.891Z,21.62
2017-10-12T19:30:20.839Z,21.70
2017-10-12T19:32:31.518Z,21.55
2017-10-12T19:34:36.633Z,21.64
2017-10-12T19:36:47.787Z,21.66
2017-10-12T19:38:52.911Z,21.66
2017-10-12T19:43:14.844Z,21.65
2017-10-12T19:45:22.453Z,21.63
2017-10-12T19:47:33.936Z,21.58
2017-10-12T19:49:44.089Z,21.63
2017-10-12T19:51:51.826Z,21.64
2017-10-12T19:54:01.686Z,21.56
2017-10-12T19:56:30.532Z,21.53
2017-10-12T19:59:06.989Z,21.56
2017-10-12T20:00:44.211Z,21.55
2017-10-12T20:02:51.574Z,21.56
2017-10-12T20:04:56.307Z,21.56
2017-10-12T20:07:06.420Z,21.59
2017-10-12T20:09:17.542Z,21.62
2017-10-12T20:11:23.940Z,21.60
2017-10-12T20:13:32.244Z,21.53
2017-10-12T20:15:38.762Z,21.57
2017-10-12T20:17:45.391Z,21.57
2017-10-12T20:19:50.152Z,21.53
2017-10-12T20:21:57.089Z,21.54
2017-10-12T20:26:10.033Z,21.51
2017-10-12T20:29:37.164Z,21.55
2017-10-12T20:31:47.536Z,21.50
2017-10-12T20:33:53.975Z,21.55
2017-10-12T20:35:59.366Z,21.56
2017-10-12T20:38:06.383Z,21.53
2017-10-12T20:40:16.435Z,21.55
2017-10-12T20:42:22.904Z,21.51
2017-10-12T20:44:28.609Z,21.52
2017-10-12T20:46:34.949Z,21.52
2017-10-12T20:48:44.353Z,21.55
2017-10-12T20:50:49.328Z,21.60
2017-10-12T20:52:56.744Z,21.56
2017-10-12T20:57:08.699Z,21.55
2017-10-12T20:59:14.892Z,21.57
2017-10-12T21:01:27.899Z,21.56
2017-10-12T21:12:10.632Z,21.60
2017-10-12T21:14:18.568Z,21.49
2017-10-12T21:17:15.244Z,21.61
2017-10-12T21:19:46.971Z,21.72
2017-10-12T21:25:43.792Z,21.82
2017-10-12T21:41:48.391Z,21.19
2017-10-12T21:43:53.083Z,21.18
2017-10-12T21:45:58.675Z,21.48
2017-10-12T22:37:22.273Z,21.24
2017-10-12T22:39:28.393Z,21.28
2017-10-12T22:41:32.657Z,21.28
2017-10-12T22:43:37.740Z,21.14
2017-10-12T22:45:43.857Z,21.18
2017-10-12T22:47:50.208Z,21.45
2017-10-12T22:49:55.902Z,21.08
2017-10-12T22:52:02.891Z,21.08
2017-10-12T22:54:08.486Z,21.02
2017-10-12T22:56:14.627Z,21.07
2017-10-12T22:58:21.368Z,21.01
2017-10-12T23:00:31.678Z,21.16
2017-10-12T23:02:37.111Z,21.10
2017-10-12T23:04:44.432Z,21.22
2017-10-12T23:06:50.856Z,20.92
2017-10-12T23:08:57.347Z,21.08
2017-10-12T23:11:03.839Z,20.99
2017-10-12T23:13:14.638Z,20.90
2017-10-12T23:15:20.038Z,20.93
2017-10-12T23:17:29.031Z,21.00
2017-10-12T23:19:34.279Z,21.25
2017-10-12T23:21:42.759Z,21.28
2017-10-12T23:23:49.550Z,21.58
2017-10-12T23:25:56.001Z,21.81
2017-10-12T23:28:03.572Z,22.04
2017-10-12T23:30:11.637Z,22.00
2017-10-12T23:32:18.470Z,22.08
2017-10-12T23:34:26.613Z,22.01
2017-10-12T23:36:34.067Z,22.20
2017-10-12T23:38:44.153Z,22.13
2017-10-12T23:40:49.610Z,22.08
2017-10-12T23:42:54.525Z,22.10
2017-10-12T23:45:01.060Z,22.02
2017-10-12T23:47:06.802Z,22.12
2017-10-12T23:49:11.830Z,21.91
2017-10-12T23:51:17.300Z,22.10
2017-10-12T23:53:24.371Z,22.03
2017-10-12T23:55:29.948Z,22.20
2017-10-12T23:57:36.152Z,21.93
2017-10-12T23:59:47.296Z,21.93
